sensor_id;sensor_type;location;lat;lon;timestamp;temperature;humidity
44431;DHT22;30135;47.866;-4.222;2023-06-05T00:00:17;19.40;59.90
44431;DHT22;30135;47.866;-4.222;2023-06-05T00:02:43;19.30;59.80
44431;DHT22;30135;47.866;-4.222;2023-06-05T00:05:09;19.30;59.90
44431;DHT22;30135;47.866;-4.222;2023-06-05T00:07:36;19.30;60.10
44431;DHT22;30135;47.866;-4.222;2023-06-05T00:10:06;19.30;60.20
44431;DHT22;30135;47.866;-4.222;2023-06-05T00:12:32;19.20;60.30
44431;DHT22;30135;47.866;-4.222;2023-06-05T00:14:59;19.20;60.40
44431;DHT22;30135;47.866;-4.222;2023-06-05T00:17:25;19.20;61.30
44431;DHT22;30135;47.866;-4.222;2023-06-05T00:19:51;19.20;60.60
44431;DHT22;30135;47.866;-4.222;2023-06-05T00:22:17;19.20;60.60
44431;DHT22;30135;47.866;-4.222;2023-06-05T00:24:43;19.20;60.80
44431;DHT22;30135;47.866;-4.222;2023-06-05T00:27:09;19.10;60.80
44431;DHT22;30135;47.866;-4.222;2023-06-05T00:29:35;19.10;60.90
44431;DHT22;30135;47.866;-4.222;2023-06-05T00:32:01;19.10;61.00
44431;DHT22;30135;47.866;-4.222;2023-06-05T00:34:27;19.00;61.00
44431;DHT22;30135;47.866;-4.222;2023-06-05T00:36:53;19.00;61.20
44431;DHT22;30135;47.866;-4.222;2023-06-05T00:39:20;19.00;61.30
44431;DHT22;30135;47.866;-4.222;2023-06-05T00:41:46;19.00;61.50
44431;DHT22;30135;47.866;-4.222;2023-06-05T00:44:12;19.00;61.50
44431;DHT22;30135;47.866;-4.222;2023-06-05T00:46:38;19.00;61.50
44431;DHT22;30135;47.866;-4.222;2023-06-05T00:49:06;18.90;61.50
44431;DHT22;30135;47.866;-4.222;2023-06-05T00:51:33;18.90;61.50
44431;DHT22;30135;47.866;-4.222;2023-06-05T00:53:59;18.90;61.70
44431;DHT22;30135;47.866;-4.222;2023-06-05T00:56:26;18.90;61.70
44431;DHT22;30135;47.866;-4.222;2023-06-05T00:58:53;18.90;61.80
44431;DHT22;30135;47.866;-4.222;2023-06-05T01:01:20;18.80;62.00
44431;DHT22;30135;47.866;-4.222;2023-06-05T01:03:47;18.80;62.00
44431;DHT22;30135;47.866;-4.222;2023-06-05T01:06:13;18.80;62.10
44431;DHT22;30135;47.866;-4.222;2023-06-05T01:08:42;18.80;62.10
44431;DHT22;30135;47.866;-4.222;2023-06-05T01:11:36;18.80;62.20
44431;DHT22;30135;47.866;-4.222;2023-06-05T01:14:31;18.80;62.30
44431;DHT22;30135;47.866;-4.222;2023-06-05T01:17:01;18.70;62.50
44431;DHT22;30135;47.866;-4.222;2023-06-05T01:19:28;18.70;62.40
44431;DHT22;30135;47.866;-4.222;2023-06-05T01:21:59;18.70;62.50
44431;DHT22;30135;47.866;-4.222;2023-06-05T01:24:27;18.70;62.60
44431;DHT22;30135;47.866;-4.222;2023-06-05T01:27:14;18.60;62.60
44431;DHT22;30135;47.866;-4.222;2023-06-05T01:30:04;18.60;62.80
44431;DHT22;30135;47.866;-4.222;2023-06-05T01:33:01;18.60;62.90
44431;DHT22;30135;47.866;-4.222;2023-06-05T01:35:38;18.60;62.90
44431;DHT22;30135;47.866;-4.222;2023-06-05T01:38:06;18.60;63.00
44431;DHT22;30135;47.866;-4.222;2023-06-05T01:40:35;18.60;63.00
44431;DHT22;30135;47.866;-4.222;2023-06-05T01:43:03;18.50;63.00
44431;DHT22;30135;47.866;-4.222;2023-06-05T01:45:31;18.50;63.10
44431;DHT22;30135;47.866;-4.222;2023-06-05T01:47:58;18.50;63.20
44431;DHT22;30135;47.866;-4.222;2023-06-05T01:50:24;18.50;63.30
44431;DHT22;30135;47.866;-4.222;2023-06-05T01:52:50;18.50;63.40
44431;DHT22;30135;47.866;-4.222;2023-06-05T01:55:22;18.50;63.40
44431;DHT22;30135;47.866;-4.222;2023-06-05T01:57:50;18.40;63.40
44431;DHT22;30135;47.866;-4.222;2023-06-05T02:00:16;18.50;63.50
44431;DHT22;30135;47.866;-4.222;2023-06-05T02:02:48;18.40;63.50
44431;DHT22;30135;47.866;-4.222;2023-06-05T02:05:16;18.40;63.50
44431;DHT22;30135;47.866;-4.222;2023-06-05T02:07:47;18.40;63.50
44431;DHT22;30135;47.866;-4.222;2023-06-05T02:10:20;18.40;63.60
44431;DHT22;30135;47.866;-4.222;2023-06-05T02:12:47;18.40;63.60
44431;DHT22;30135;47.866;-4.222;2023-06-05T02:15:13;18.30;63.60
44431;DHT22;30135;47.866;-4.222;2023-06-05T02:17:44;18.30;63.70
44431;DHT22;30135;47.866;-4.222;2023-06-05T02:20:16;18.30;63.70
44431;DHT22;30135;47.866;-4.222;2023-06-05T02:22:42;18.30;63.60
44431;DHT22;30135;47.866;-4.222;2023-06-05T02:25:10;18.30;63.70
44431;DHT22;30135;47.866;-4.222;2023-06-05T02:27:37;18.30;63.70
44431;DHT22;30135;47.866;-4.222;2023-06-05T02:30:04;18.20;63.70
44431;DHT22;30135;47.866;-4.222;2023-06-05T02:32:30;18.20;64.10
44431;DHT22;30135;47.866;-4.222;2023-06-05T02:34:57;18.20;63.80
44431;DHT22;30135;47.866;-4.222;2023-06-05T02:37:27;18.20;63.70
44431;DHT22;30135;47.866;-4.222;2023-06-05T02:39:54;18.20;63.70
44431;DHT22;30135;47.866;-4.222;2023-06-05T02:42:20;18.20;63.80
44431;DHT22;30135;47.866;-4.222;2023-06-05T02:44:46;18.20;63.70
44431;DHT22;30135;47.866;-4.222;2023-06-05T02:47:12;18.10;63.70
44431;DHT22;30135;47.866;-4.222;2023-06-05T02:49:38;18.10;63.80
44431;DHT22;30135;47.866;-4.222;2023-06-05T02:52:07;18.10;63.80
44431;DHT22;30135;47.866;-4.222;2023-06-05T02:54:33;18.10;63.90
44431;DHT22;30135;47.866;-4.222;2023-06-05T02:56:59;18.10;64.00
44431;DHT22;30135;47.866;-4.222;2023-06-05T02:59:26;18.10;64.00
44431;DHT22;30135;47.866;-4.222;2023-06-05T03:01:53;18.10;64.10
44431;DHT22;30135;47.866;-4.222;2023-06-05T03:04:19;18.10;64.20
44431;DHT22;30135;47.866;-4.222;2023-06-05T03:06:50;18.10;64.20
44431;DHT22;30135;47.866;-4.222;2023-06-05T03:09:18;18.00;64.10
44431;DHT22;30135;47.866;-4.222;2023-06-05T03:11:45;18.00;64.20
44431;DHT22;30135;47.866;-4.222;2023-06-05T03:14:10;18.10;64.30
44431;DHT22;30135;47.866;-4.222;2023-06-05T03:16:37;18.00;64.10
44431;DHT22;30135;47.866;-4.222;2023-06-05T03:19:10;18.00;64.30
44431;DHT22;30135;47.866;-4.222;2023-06-05T03:21:39;18.00;64.30
44431;DHT22;30135;47.866;-4.222;2023-06-05T03:24:11;18.00;64.20
44431;DHT22;30135;47.866;-4.222;2023-06-05T03:26:42;18.00;64.20
44431;DHT22;30135;47.866;-4.222;2023-06-05T03:29:09;17.90;64.20
44431;DHT22;30135;47.866;-4.222;2023-06-05T03:31:36;17.90;64.10
44431;DHT22;30135;47.866;-4.222;2023-06-05T03:34:02;17.90;64.10
44431;DHT22;30135;47.866;-4.222;2023-06-05T03:36:30;17.90;64.10
44431;DHT22;30135;47.866;-4.222;2023-06-05T03:38:58;17.90;64.10
44431;DHT22;30135;47.866;-4.222;2023-06-05T03:41:25;17.90;64.10
44431;DHT22;30135;47.866;-4.222;2023-06-05T03:43:51;17.90;64.10
44431;DHT22;30135;47.866;-4.222;2023-06-05T03:46:18;17.90;64.20
44431;DHT22;30135;47.866;-4.222;2023-06-05T03:48:48;17.80;64.10
44431;DHT22;30135;47.866;-4.222;2023-06-05T03:51:15;17.80;64.10
44431;DHT22;30135;47.866;-4.222;2023-06-05T03:53:47;17.80;64.10
44431;DHT22;30135;47.866;-4.222;2023-06-05T03:56:20;17.80;64.20
44431;DHT22;30135;47.866;-4.222;2023-06-05T03:58:47;17.80;64.10
44431;DHT22;30135;47.866;-4.222;2023-06-05T04:01:14;17.80;64.10
44431;DHT22;30135;47.866;-4.222;2023-06-05T04:03:40;17.70;64.20
44431;DHT22;30135;47.866;-4.222;2023-06-05T04:06:06;17.70;64.30
44431;DHT22;30135;47.866;-4.222;2023-06-05T04:08:34;17.70;64.30
44431;DHT22;30135;47.866;-4.222;2023-06-05T04:11:00;17.70;64.30
44431;DHT22;30135;47.866;-4.222;2023-06-05T04:13:26;17.70;64.30
44431;DHT22;30135;47.866;-4.222;2023-06-05T04:15:52;17.70;64.30
44431;DHT22;30135;47.866;-4.222;2023-06-05T04:18:18;17.70;64.40
44431;DHT22;30135;47.866;-4.222;2023-06-05T04:20:44;17.60;64.30
44431;DHT22;30135;47.866;-4.222;2023-06-05T04:23:10;17.70;64.40
44431;DHT22;30135;47.866;-4.222;2023-06-05T04:25:36;17.60;64.30
44431;DHT22;30135;47.866;-4.222;2023-06-05T04:28:02;17.60;64.30
44431;DHT22;30135;47.866;-4.222;2023-06-05T04:30:28;17.60;64.40
44431;DHT22;30135;47.866;-4.222;2023-06-05T04:32:55;17.60;64.40
44431;DHT22;30135;47.866;-4.222;2023-06-05T04:35:22;17.60;64.50
44431;DHT22;30135;47.866;-4.222;2023-06-05T04:37:49;17.60;64.40
44431;DHT22;30135;47.866;-4.222;2023-06-05T04:40:17;17.60;64.40
44431;DHT22;30135;47.866;-4.222;2023-06-05T04:42:43;17.50;64.40
44431;DHT22;30135;47.866;-4.222;2023-06-05T04:45:10;17.50;64.40
44431;DHT22;30135;47.866;-4.222;2023-06-05T04:47:36;17.50;64.50
44431;DHT22;30135;47.866;-4.222;2023-06-05T04:50:04;17.50;64.50
44431;DHT22;30135;47.866;-4.222;2023-06-05T04:52:33;17.50;64.50
44431;DHT22;30135;47.866;-4.222;2023-06-05T04:55:06;17.50;64.50
44431;DHT22;30135;47.866;-4.222;2023-06-05T04:57:32;17.50;64.60
44431;DHT22;30135;47.866;-4.222;2023-06-05T04:59:58;17.50;64.70
44431;DHT22;30135;47.866;-4.222;2023-06-05T05:02:24;17.50;64.70
44431;DHT22;30135;47.866;-4.222;2023-06-05T05:04:50;17.50;64.70
44431;DHT22;30135;47.866;-4.222;2023-06-05T05:07:16;17.50;64.70
44431;DHT22;30135;47.866;-4.222;2023-06-05T05:09:43;17.50;64.70
44431;DHT22;30135;47.866;-4.222;2023-06-05T05:12:10;17.50;64.70
44431;DHT22;30135;47.866;-4.222;2023-06-05T05:14:36;17.40;64.70
44431;DHT22;30135;47.866;-4.222;2023-06-05T05:17:03;17.40;64.80
44431;DHT22;30135;47.866;-4.222;2023-06-05T05:19:29;17.40;64.80
44431;DHT22;30135;47.866;-4.222;2023-06-05T05:21:56;17.40;64.80
44431;DHT22;30135;47.866;-4.222;2023-06-05T05:24:23;17.40;64.80
44431;DHT22;30135;47.866;-4.222;2023-06-05T05:26:51;17.40;65.00
44431;DHT22;30135;47.866;-4.222;2023-06-05T05:29:18;17.50;65.10
44431;DHT22;30135;47.866;-4.222;2023-06-05T05:31:44;17.40;65.10
44431;DHT22;30135;47.866;-4.222;2023-06-05T05:34:11;17.40;65.20
44431;DHT22;30135;47.866;-4.222;2023-06-05T05:36:37;17.40;65.20
44431;DHT22;30135;47.866;-4.222;2023-06-05T05:39:06;17.40;65.30
44431;DHT22;30135;47.866;-4.222;2023-06-05T05:41:33;17.40;65.40
44431;DHT22;30135;47.866;-4.222;2023-06-05T05:44:00;17.40;65.50
44431;DHT22;30135;47.866;-4.222;2023-06-05T05:46:26;17.40;65.60
44431;DHT22;30135;47.866;-4.222;2023-06-05T05:48:52;17.40;65.70
44431;DHT22;30135;47.866;-4.222;2023-06-05T05:51:17;17.50;65.80
44431;DHT22;30135;47.866;-4.222;2023-06-05T05:53:44;17.50;65.80
44431;DHT22;30135;47.866;-4.222;2023-06-05T05:56:09;17.50;65.80
44431;DHT22;30135;47.866;-4.222;2023-06-05T05:58:36;17.50;65.90
44431;DHT22;30135;47.866;-4.222;2023-06-05T06:01:02;17.50;65.90
44431;DHT22;30135;47.866;-4.222;2023-06-05T06:03:28;17.50;65.90
44431;DHT22;30135;47.866;-4.222;2023-06-05T06:05:54;17.50;66.00
44431;DHT22;30135;47.866;-4.222;2023-06-05T06:08:22;17.50;66.00
44431;DHT22;30135;47.866;-4.222;2023-06-05T06:10:48;17.60;66.10
44431;DHT22;30135;47.866;-4.222;2023-06-05T06:13:14;17.60;66.20
44431;DHT22;30135;47.866;-4.222;2023-06-05T06:15:40;17.60;66.20
44431;DHT22;30135;47.866;-4.222;2023-06-05T06:18:06;17.60;66.20
44431;DHT22;30135;47.866;-4.222;2023-06-05T06:20:33;17.70;66.20
44431;DHT22;30135;47.866;-4.222;2023-06-05T06:23:00;17.70;66.20
44431;DHT22;30135;47.866;-4.222;2023-06-05T06:25:28;17.70;66.30
44431;DHT22;30135;47.866;-4.222;2023-06-05T06:28:00;17.70;66.30
44431;DHT22;30135;47.866;-4.222;2023-06-05T06:30:26;17.70;66.30
44431;DHT22;30135;47.866;-4.222;2023-06-05T06:32:57;17.80;66.40
44431;DHT22;30135;47.866;-4.222;2023-06-05T06:35:26;17.80;66.40
44431;DHT22;30135;47.866;-4.222;2023-06-05T06:37:53;17.80;66.40
44431;DHT22;30135;47.866;-4.222;2023-06-05T06:40:24;17.90;66.50
44431;DHT22;30135;47.866;-4.222;2023-06-05T06:42:51;17.90;66.50
44431;DHT22;30135;47.866;-4.222;2023-06-05T06:45:17;17.90;66.50
44431;DHT22;30135;47.866;-4.222;2023-06-05T06:47:43;18.00;66.60
44431;DHT22;30135;47.866;-4.222;2023-06-05T06:50:09;18.00;66.70
44431;DHT22;30135;47.866;-4.222;2023-06-05T06:52:35;18.00;66.60
44431;DHT22;30135;47.866;-4.222;2023-06-05T06:55:02;18.10;66.60
44431;DHT22;30135;47.866;-4.222;2023-06-05T06:57:28;18.20;66.60
44431;DHT22;30135;47.866;-4.222;2023-06-05T06:59:54;18.20;66.60
44431;DHT22;30135;47.866;-4.222;2023-06-05T07:02:23;18.20;66.60
44431;DHT22;30135;47.866;-4.222;2023-06-05T07:04:49;18.30;66.50
44431;DHT22;30135;47.866;-4.222;2023-06-05T07:07:16;18.30;66.40
44431;DHT22;30135;47.866;-4.222;2023-06-05T07:09:44;18.30;66.20
44431;DHT22;30135;47.866;-4.222;2023-06-05T07:12:13;18.40;66.00
44431;DHT22;30135;47.866;-4.222;2023-06-05T07:14:40;18.40;66.10
44431;DHT22;30135;47.866;-4.222;2023-06-05T07:17:06;18.50;66.10
44431;DHT22;30135;47.866;-4.222;2023-06-05T07:19:33;18.50;65.90
44431;DHT22;30135;47.866;-4.222;2023-06-05T07:22:02;18.60;65.80
44431;DHT22;30135;47.866;-4.222;2023-06-05T07:24:33;18.70;65.80
44431;DHT22;30135;47.866;-4.222;2023-06-05T07:27:04;18.70;65.60
44431;DHT22;30135;47.866;-4.222;2023-06-05T07:29:31;18.70;65.50
44431;DHT22;30135;47.866;-4.222;2023-06-05T07:31:58;18.80;66.20
44431;DHT22;30135;47.866;-4.222;2023-06-05T07:34:25;18.90;65.20
44431;DHT22;30135;47.866;-4.222;2023-06-05T07:36:52;18.90;65.20
44431;DHT22;30135;47.866;-4.222;2023-06-05T07:39:20;18.90;65.20
44431;DHT22;30135;47.866;-4.222;2023-06-05T07:41:46;19.00;65.50
44431;DHT22;30135;47.866;-4.222;2023-06-05T07:44:16;19.00;65.40
44431;DHT22;30135;47.866;-4.222;2023-06-05T07:46:46;19.10;65.30
44431;DHT22;30135;47.866;-4.222;2023-06-05T07:49:13;19.20;65.20
44431;DHT22;30135;47.866;-4.222;2023-06-05T07:51:41;19.20;64.60
44431;DHT22;30135;47.866;-4.222;2023-06-05T07:54:10;19.30;64.60
44431;DHT22;30135;47.866;-4.222;2023-06-05T07:56:37;19.40;64.40
44431;DHT22;30135;47.866;-4.222;2023-06-05T07:59:04;19.40;64.20
44431;DHT22;30135;47.866;-4.222;2023-06-05T08:01:34;19.50;64.00
44431;DHT22;30135;47.866;-4.222;2023-06-05T08:04:07;19.50;63.80
44431;DHT22;30135;47.866;-4.222;2023-06-05T08:06:36;19.60;63.90
44431;DHT22;30135;47.866;-4.222;2023-06-05T08:09:05;19.60;63.80
44431;DHT22;30135;47.866;-4.222;2023-06-05T08:11:35;19.70;63.50
44431;DHT22;30135;47.866;-4.222;2023-06-05T08:14:04;19.70;63.30
44431;DHT22;30135;47.866;-4.222;2023-06-05T08:16:31;19.80;63.00
44431;DHT22;30135;47.866;-4.222;2023-06-05T08:18:58;19.90;62.80
44431;DHT22;30135;47.866;-4.222;2023-06-05T08:21:24;20.00;62.20
44431;DHT22;30135;47.866;-4.222;2023-06-05T08:23:50;20.00;62.10
44431;DHT22;30135;47.866;-4.222;2023-06-05T08:26:19;20.10;62.00
44431;DHT22;30135;47.866;-4.222;2023-06-05T08:28:45;20.20;61.70
44431;DHT22;30135;47.866;-4.222;2023-06-05T08:31:11;20.20;61.80
44431;DHT22;30135;47.866;-4.222;2023-06-05T08:33:38;20.30;61.70
44431;DHT22;30135;47.866;-4.222;2023-06-05T08:36:04;20.40;61.40
44431;DHT22;30135;47.866;-4.222;2023-06-05T08:38:32;20.40;61.10
44431;DHT22;30135;47.866;-4.222;2023-06-05T08:41:04;20.50;61.10
44431;DHT22;30135;47.866;-4.222;2023-06-05T08:43:39;20.60;60.70
44431;DHT22;30135;47.866;-4.222;2023-06-05T08:46:09;20.60;60.30
44431;DHT22;30135;47.866;-4.222;2023-06-05T08:48:47;20.70;60.30
44431;DHT22;30135;47.866;-4.222;2023-06-05T08:51:17;20.70;60.10
44431;DHT22;30135;47.866;-4.222;2023-06-05T08:54:04;20.80;60.00
44431;DHT22;30135;47.866;-4.222;2023-06-05T08:56:33;20.90;59.90
44431;DHT22;30135;47.866;-4.222;2023-06-05T08:59:04;20.90;59.90
44431;DHT22;30135;47.866;-4.222;2023-06-05T09:01:31;21.00;59.70
44431;DHT22;30135;47.866;-4.222;2023-06-05T09:04:01;21.10;59.60
44431;DHT22;30135;47.866;-4.222;2023-06-05T09:06:27;21.10;59.20
44431;DHT22;30135;47.866;-4.222;2023-06-05T09:08:54;21.20;59.10
44431;DHT22;30135;47.866;-4.222;2023-06-05T09:11:24;21.30;59.10
44431;DHT22;30135;47.866;-4.222;2023-06-05T09:14:02;21.30;58.90
44431;DHT22;30135;47.866;-4.222;2023-06-05T09:16:39;21.40;58.70
44431;DHT22;30135;47.866;-4.222;2023-06-05T09:19:09;21.50;58.60
44431;DHT22;30135;47.866;-4.222;2023-06-05T09:21:39;21.60;58.70
44431;DHT22;30135;47.866;-4.222;2023-06-05T09:29:30;21.80;57.90
44431;DHT22;30135;47.866;-4.222;2023-06-05T09:32:04;21.90;57.40
44431;DHT22;30135;47.866;-4.222;2023-06-05T09:34:40;22.00;56.90
44431;DHT22;30135;47.866;-4.222;2023-06-05T09:37:09;22.00;56.90
44431;DHT22;30135;47.866;-4.222;2023-06-05T09:39:38;22.10;56.70
44431;DHT22;30135;47.866;-4.222;2023-06-05T09:42:05;22.20;56.70
44431;DHT22;30135;47.866;-4.222;2023-06-05T09:44:33;22.30;56.40
44431;DHT22;30135;47.866;-4.222;2023-06-05T09:47:05;22.30;55.90
44431;DHT22;30135;47.866;-4.222;2023-06-05T09:52:07;22.50;55.50
44431;DHT22;30135;47.866;-4.222;2023-06-05T09:54:37;22.60;55.10
44431;DHT22;30135;47.866;-4.222;2023-06-05T09:57:06;22.70;54.70
44431;DHT22;30135;47.866;-4.222;2023-06-05T09:59:54;22.70;54.70
44431;DHT22;30135;47.866;-4.222;2023-06-05T10:02:25;22.80;54.20
44431;DHT22;30135;47.866;-4.222;2023-06-05T10:05:01;23.00;54.60
44431;DHT22;30135;47.866;-4.222;2023-06-05T10:07:33;23.10;54.20
44431;DHT22;30135;47.866;-4.222;2023-06-05T10:10:02;23.10;54.00
44431;DHT22;30135;47.866;-4.222;2023-06-05T10:12:32;23.20;53.30
44431;DHT22;30135;47.866;-4.222;2023-06-05T10:14:58;23.20;53.30
44431;DHT22;30135;47.866;-4.222;2023-06-05T10:17:25;23.30;53.10
44431;DHT22;30135;47.866;-4.222;2023-06-05T10:19:52;23.40;52.60
44431;DHT22;30135;47.866;-4.222;2023-06-05T10:22:19;23.50;52.60
44431;DHT22;30135;47.866;-4.222;2023-06-05T10:24:48;23.50;52.50
44431;DHT22;30135;47.866;-4.222;2023-06-05T10:27:47;23.60;52.40
44431;DHT22;30135;47.866;-4.222;2023-06-05T10:39:58;23.90;50.60
44431;DHT22;30135;47.866;-4.222;2023-06-05T10:42:28;23.90;51.20
44431;DHT22;30135;47.866;-4.222;2023-06-05T10:44:54;24.00;50.80
44431;DHT22;30135;47.866;-4.222;2023-06-05T10:47:53;24.00;49.80
44431;DHT22;30135;47.866;-4.222;2023-06-05T10:50:19;24.10;49.40
44431;DHT22;30135;47.866;-4.222;2023-06-05T10:52:52;24.20;49.60
44431;DHT22;30135;47.866;-4.222;2023-06-05T10:55:20;24.20;49.50
44431;DHT22;30135;47.866;-4.222;2023-06-05T11:00:31;24.40;48.10
44431;DHT22;30135;47.866;-4.222;2023-06-05T11:02:58;24.40;48.30
44431;DHT22;30135;47.866;-4.222;2023-06-05T11:05:25;24.50;48.10
44431;DHT22;30135;47.866;-4.222;2023-06-05T11:08:16;24.50;47.60
44431;DHT22;30135;47.866;-4.222;2023-06-05T11:11:19;24.60;46.60
44431;DHT22;30135;47.866;-4.222;2023-06-05T11:13:52;24.60;46.40
44431;DHT22;30135;47.866;-4.222;2023-06-05T11:16:26;24.70;46.00
44431;DHT22;30135;47.866;-4.222;2023-06-05T11:22:07;24.80;45.40
44431;DHT22;30135;47.866;-4.222;2023-06-05T11:24:35;24.90;45.50
44431;DHT22;30135;47.866;-4.222;2023-06-05T11:27:03;25.00;46.20
44431;DHT22;30135;47.866;-4.222;2023-06-05T11:29:31;25.00;45.60
44431;DHT22;30135;47.866;-4.222;2023-06-05T11:31:58;25.10;45.00
44431;DHT22;30135;47.866;-4.222;2023-06-05T11:34:25;25.20;45.10
44431;DHT22;30135;47.866;-4.222;2023-06-05T11:36:54;25.20;44.90
44431;DHT22;30135;47.866;-4.222;2023-06-05T11:39:20;25.20;45.10
44431;DHT22;30135;47.866;-4.222;2023-06-05T11:41:49;25.30;45.70
44431;DHT22;30135;47.866;-4.222;2023-06-05T11:44:34;25.40;45.30
44431;DHT22;30135;47.866;-4.222;2023-06-05T11:47:03;25.40;44.60
44431;DHT22;30135;47.866;-4.222;2023-06-05T11:49:29;25.50;44.80
44431;DHT22;30135;47.866;-4.222;2023-06-05T11:51:56;25.60;45.00
44431;DHT22;30135;47.866;-4.222;2023-06-05T11:54:27;25.70;44.30
44431;DHT22;30135;47.866;-4.222;2023-06-05T11:56:59;25.70;43.80
44431;DHT22;30135;47.866;-4.222;2023-06-05T11:59:37;25.70;43.30
44431;DHT22;30135;47.866;-4.222;2023-06-05T12:02:04;25.80;43.20
44431;DHT22;30135;47.866;-4.222;2023-06-05T12:04:34;25.80;43.20
44431;DHT22;30135;47.866;-4.222;2023-06-05T12:07:00;25.80;43.40
44431;DHT22;30135;47.866;-4.222;2023-06-05T12:09:28;25.90;43.40
44431;DHT22;30135;47.866;-4.222;2023-06-05T12:12:05;25.90;43.60
44431;DHT22;30135;47.866;-4.222;2023-06-05T12:14:33;26.00;43.40
44431;DHT22;30135;47.866;-4.222;2023-06-05T12:17:00;26.00;43.10
44431;DHT22;30135;47.866;-4.222;2023-06-05T12:19:34;26.10;42.90
44431;DHT22;30135;47.866;-4.222;2023-06-05T12:22:05;26.00;42.60
44431;DHT22;30135;47.866;-4.222;2023-06-05T12:24:34;26.10;42.70
44431;DHT22;30135;47.866;-4.222;2023-06-05T12:27:03;26.10;42.70
44431;DHT22;30135;47.866;-4.222;2023-06-05T12:29:36;26.10;42.80
44431;DHT22;30135;47.866;-4.222;2023-06-05T12:32:20;26.20;42.60
44431;DHT22;30135;47.866;-4.222;2023-06-05T12:34:48;26.20;42.20
44431;DHT22;30135;47.866;-4.222;2023-06-05T12:40:03;26.20;42.70
44431;DHT22;30135;47.866;-4.222;2023-06-05T12:42:37;26.30;42.60
44431;DHT22;30135;47.866;-4.222;2023-06-05T12:45:10;26.20;42.30
44431;DHT22;30135;47.866;-4.222;2023-06-05T12:47:38;26.30;41.80
44431;DHT22;30135;47.866;-4.222;2023-06-05T12:50:05;26.30;41.70
44431;DHT22;30135;47.866;-4.222;2023-06-05T12:52:38;26.40;41.70
44431;DHT22;30135;47.866;-4.222;2023-06-05T12:55:05;26.40;41.80
44431;DHT22;30135;47.866;-4.222;2023-06-05T12:57:32;26.40;42.00
44431;DHT22;30135;47.866;-4.222;2023-06-05T13:00:04;26.40;41.70
44431;DHT22;30135;47.866;-4.222;2023-06-05T13:02:44;26.40;41.30
44431;DHT22;30135;47.866;-4.222;2023-06-05T13:05:11;26.40;40.80
44431;DHT22;30135;47.866;-4.222;2023-06-05T13:07:37;26.40;41.00
44431;DHT22;30135;47.866;-4.222;2023-06-05T13:10:08;26.40;40.90
44431;DHT22;30135;47.866;-4.222;2023-06-05T13:12:36;26.40;40.80
44431;DHT22;30135;47.866;-4.222;2023-06-05T13:15:03;26.40;41.20
44431;DHT22;30135;47.866;-4.222;2023-06-05T13:17:32;26.40;40.70
44431;DHT22;30135;47.866;-4.222;2023-06-05T13:20:01;26.40;40.70
44431;DHT22;30135;47.866;-4.222;2023-06-05T13:22:32;26.50;40.50
44431;DHT22;30135;47.866;-4.222;2023-06-05T13:24:58;26.50;41.10
44431;DHT22;30135;47.866;-4.222;2023-06-05T13:27:24;26.50;40.80
44431;DHT22;30135;47.866;-4.222;2023-06-05T13:29:50;26.60;40.40
44431;DHT22;30135;47.866;-4.222;2023-06-05T13:32:16;26.60;40.00
44431;DHT22;30135;47.866;-4.222;2023-06-05T13:34:42;26.60;40.00
44431;DHT22;30135;47.866;-4.222;2023-06-05T13:37:08;26.50;40.40
44431;DHT22;30135;47.866;-4.222;2023-06-05T13:39:34;26.50;40.50
44431;DHT22;30135;47.866;-4.222;2023-06-05T13:42:00;26.60;40.20
44431;DHT22;30135;47.866;-4.222;2023-06-05T13:44:29;26.60;40.10
44431;DHT22;30135;47.866;-4.222;2023-06-05T13:46:56;26.60;39.90
44431;DHT22;30135;47.866;-4.222;2023-06-05T13:49:23;26.60;40.10
44431;DHT22;30135;47.866;-4.222;2023-06-05T13:51:49;26.60;40.00
44431;DHT22;30135;47.866;-4.222;2023-06-05T13:54:14;26.70;40.00
44431;DHT22;30135;47.866;-4.222;2023-06-05T13:56:40;26.70;39.90
44431;DHT22;30135;47.866;-4.222;2023-06-05T13:59:06;26.70;39.60
44431;DHT22;30135;47.866;-4.222;2023-06-05T14:01:32;26.70;39.40
44431;DHT22;30135;47.866;-4.222;2023-06-05T14:03:58;26.70;39.50
44431;DHT22;30135;47.866;-4.222;2023-06-05T14:06:24;26.60;39.50
44431;DHT22;30135;47.866;-4.222;2023-06-05T14:08:50;26.70;40.10
44431;DHT22;30135;47.866;-4.222;2023-06-05T14:11:16;26.70;40.40
44431;DHT22;30135;47.866;-4.222;2023-06-05T14:13:42;26.70;40.00
44431;DHT22;30135;47.866;-4.222;2023-06-05T14:16:09;26.80;39.70
44431;DHT22;30135;47.866;-4.222;2023-06-05T14:18:39;26.70;39.60
44431;DHT22;30135;47.866;-4.222;2023-06-05T14:21:05;26.70;39.70
44431;DHT22;30135;47.866;-4.222;2023-06-05T14:23:31;26.70;39.20
44431;DHT22;30135;47.866;-4.222;2023-06-05T14:25:57;26.70;39.00
44431;DHT22;30135;47.866;-4.222;2023-06-05T14:28:23;26.70;38.90
44431;DHT22;30135;47.866;-4.222;2023-06-05T14:30:49;26.70;38.60
44431;DHT22;30135;47.866;-4.222;2023-06-05T14:33:15;26.60;38.30
44431;DHT22;30135;47.866;-4.222;2023-06-05T14:35:42;26.60;38.30
44431;DHT22;30135;47.866;-4.222;2023-06-05T14:38:09;26.60;38.30
44431;DHT22;30135;47.866;-4.222;2023-06-05T14:40:41;26.50;38.50
44431;DHT22;30135;47.866;-4.222;2023-06-05T14:43:07;26.50;38.80
44431;DHT22;30135;47.866;-4.222;2023-06-05T14:45:33;26.50;38.70
44431;DHT22;30135;47.866;-4.222;2023-06-05T14:47:59;26.50;38.70
44431;DHT22;30135;47.866;-4.222;2023-06-05T14:50:25;26.50;38.80
44431;DHT22;30135;47.866;-4.222;2023-06-05T14:52:51;26.50;38.90
44431;DHT22;30135;47.866;-4.222;2023-06-05T14:55:17;26.50;38.70
44431;DHT22;30135;47.866;-4.222;2023-06-05T14:57:43;26.50;39.00
44431;DHT22;30135;47.866;-4.222;2023-06-05T15:00:10;26.60;39.60
44431;DHT22;30135;47.866;-4.222;2023-06-05T15:02:36;26.60;39.70
44431;DHT22;30135;47.866;-4.222;2023-06-05T15:05:02;26.60;39.90
44431;DHT22;30135;47.866;-4.222;2023-06-05T15:07:37;26.60;39.60
44431;DHT22;30135;47.866;-4.222;2023-06-05T15:10:04;26.60;39.20
44431;DHT22;30135;47.866;-4.222;2023-06-05T15:12:31;26.60;39.30
44431;DHT22;30135;47.866;-4.222;2023-06-05T15:14:57;26.60;39.50
44431;DHT22;30135;47.866;-4.222;2023-06-05T15:17:23;26.50;39.60
44431;DHT22;30135;47.866;-4.222;2023-06-05T15:19:49;26.50;39.70
44431;DHT22;30135;47.866;-4.222;2023-06-05T15:22:15;26.60;40.00
44431;DHT22;30135;47.866;-4.222;2023-06-05T15:24:41;26.60;40.10
44431;DHT22;30135;47.866;-4.222;2023-06-05T15:27:07;26.50;39.60
44431;DHT22;30135;47.866;-4.222;2023-06-05T15:29:34;26.50;39.50
44431;DHT22;30135;47.866;-4.222;2023-06-05T15:32:00;26.40;39.50
44431;DHT22;30135;47.866;-4.222;2023-06-05T15:34:29;26.40;39.90
44431;DHT22;30135;47.866;-4.222;2023-06-05T15:36:55;26.40;40.00
44431;DHT22;30135;47.866;-4.222;2023-06-05T15:39:20;26.40;39.70
44431;DHT22;30135;47.866;-4.222;2023-06-05T15:41:46;26.40;39.60
44431;DHT22;30135;47.866;-4.222;2023-06-05T15:44:14;26.40;39.80
44431;DHT22;30135;47.866;-4.222;2023-06-05T15:46:41;26.40;39.90
44431;DHT22;30135;47.866;-4.222;2023-06-05T15:49:07;26.30;39.90